Time;durP1;ratioP1;P1;durP2;ratioP2;P2;SDS_P1;SDS_P2;PMS_P1;PMS_P2;Temp;Humidity;BMP_temperature;BMP_pressure;BME280_temperature;BME280_humidity;BME280_pressure;Samples;Min_cycle;Max_cycle;Signal;HPM_P1;HPM_P2
2022/03/20 00:01:13;;;;;;;;;6.00;4.00;;;;;12.93;61.96;102380.25;6396356;22;45458;-96
2022/03/20 00:03:43;;;;;;;;;5.67;3.33;;;;;12.87;62.00;102386.84;6423884;22;45350;-94
2022/03/20 00:06:09;;;;;;;;;4.00;4.00;;;;;12.88;62.41;102396.59;6395855;22;48253;-95
2022/03/20 00:08:34;;;;;;;;;2.33;2.33;;;;;12.84;62.50;102390.19;6396285;22;45299;-95
2022/03/20 00:11:01;;;;;;;;;6.00;3.00;;;;;12.83;62.22;102391.03;6423860;22;45435;-94
2022/03/20 00:13:28;;;;;;;;;3.33;3.33;;;;;12.76;62.30;102379.19;6396212;22;45383;-95
2022/03/20 00:15:55;;;;;;;;;3.67;2.33;;;;;12.74;61.97;102372.91;6395929;22;47033;-95
2022/03/20 00:18:26;;;;;;;;;3.00;3.00;;;;;12.89;62.49;102393.13;6397771;22;45260;-95
2022/03/20 00:21:00;;;;;;;;;4.67;4.67;;;;;12.77;62.70;102375.75;6397726;22;45370;-95
2022/03/20 00:23:28;;;;;;;;;2.00;2.00;;;;;12.84;62.73;102398.09;6398045;22;45423;-95
2022/03/20 00:26:00;;;;;;;;;4.00;4.00;;;;;12.77;62.90;102393.28;6398216;22;47942;-95
2022/03/20 00:28:26;;;;;;;;;6.00;4.00;;;;;12.61;63.06;102369.50;6396682;22;45405;-95
2022/03/20 00:31:01;;;;;;;;;4.00;3.00;;;;;12.72;63.29;102401.81;6397509;22;45414;-93
2022/03/20 00:33:26;;;;;;;;;4.00;2.00;;;;;12.57;62.85;102378.03;6398001;22;45576;-95
2022/03/20 00:35:52;;;;;;;;;3.67;3.00;;;;;12.52;63.10;102380.34;6423388;22;47939;-94
2022/03/20 00:38:18;;;;;;;;;4.00;3.00;;;;;12.41;63.20;102365.59;6397511;22;45545;-95
2022/03/20 00:40:43;;;;;;;;;8.00;3.33;;;;;12.53;63.57;102391.81;6425330;22;45397;-95
2022/03/20 00:43:09;;;;;;;;;2.00;2.00;;;;;12.42;63.87;102371.78;6424806;22;45537;-94
2022/03/20 00:45:36;;;;;;;;;3.67;3.67;;;;;12.42;63.96;102367.41;6397500;22;46972;-94
2022/03/20 00:48:02;;;;;;;;;2.33;2.33;;;;;12.36;64.16;102378.47;6398356;22;45300;-94
2022/03/20 00:50:36;;;;;;;;;4.00;3.67;;;;;12.33;63.66;102362.47;6398230;22;45293;-94
2022/03/20 00:53:04;;;;;;;;;2.00;2.00;;;;;12.28;63.60;102363.91;6397384;22;45396;-95
2022/03/20 00:55:30;;;;;;;;;3.00;3.00;;;;;12.17;63.75;102364.13;6397036;22;47787;-95
2022/03/20 00:57:56;;;;;;;;;2.00;2.00;;;;;12.20;63.18;102379.19;6397565;22;45421;-95
2022/03/20 01:00:22;;;;;;;;;3.33;2.00;;;;;12.03;63.92;102359.66;6398075;22;45412;-94
2022/03/20 01:02:47;;;;;;;;;6.00;4.67;;;;;12.09;63.76;102369.66;6424313;22;45291;-94
2022/03/20 01:05:15;;;;;;;;;3.33;2.33;;;;;12.12;63.82;102370.78;6397652;22;47238;-95
2022/03/20 01:07:42;;;;;;;;;3.00;3.00;;;;;12.11;63.66;102378.59;6424847;22;45364;-95
2022/03/20 01:10:09;;;;;;;;;3.00;2.00;;;;;12.03;64.18;102373.72;6397881;22;45368;-94
2022/03/20 01:12:40;;;;;;;;;4.00;2.00;;;;;11.99;64.34;102357.59;6396866;22;45441;-95
2022/03/20 01:15:10;;;;;;;;;6.00;3.00;;;;;12.03;63.94;102357.94;6396734;22;47615;-95
2022/03/20 01:17:37;;;;;;;;;7.67;3.00;;;;;11.96;64.42;102358.31;6397706;22;46239;-95
2022/03/20 01:20:05;;;;;;;;;1.67;1.67;;;;;11.89;64.48;102343.84;6398305;22;45440;-95
2022/03/20 01:22:31;;;;;;;;;2.00;2.00;;;;;11.81;64.27;102343.34;6398112;22;45640;-95
2022/03/20 01:24:56;;;;;;;;;1.00;1.00;;;;;11.78;64.32;102344.84;6397807;22;46666;-95
2022/03/20 01:27:22;;;;;;;;;2.33;2.33;;;;;11.87;64.39;102362.97;6425515;22;45677;-94
2022/03/20 01:29:47;;;;;;;;;3.00;2.00;;;;;11.84;64.47;102359.34;6400625;22;45338;-94
2022/03/20 01:32:20;;;;;;;;;2.00;2.00;;;;;11.72;64.46;102345.38;6398751;22;45406;-94
2022/03/20 01:34:47;;;;;;;;;2.67;2.67;;;;;11.76;64.59;102352.66;6398836;22;47020;-94
2022/03/20 01:37:12;;;;;;;;;2.00;2.00;;;;;11.72;64.47;102345.38;6398921;22;45264;-95
2022/03/20 01:39:43;;;;;;;;;1.33;1.33;;;;;11.67;64.85;102334.56;6397514;22;45325;-95
2022/03/20 01:42:09;;;;;;;;;2.00;2.00;;;;;11.67;64.83;102354.69;6397889;22;45373;-95
2022/03/20 01:44:40;;;;;;;;;3.00;3.00;;;;;11.68;64.63;102351.22;6423902;22;47784;-94
2022/03/20 01:47:08;;;;;;;;;3.00;2.33;;;;;11.56;64.83;102335.56;6398522;22;45462;-94
2022/03/20 01:49:34;;;;;;;;;4.33;2.33;;;;;11.60;65.13;102353.34;6425471;22;45373;-94
2022/03/20 01:52:11;;;;;;;;;2.00;2.00;;;;;11.56;65.16;102346.06;6398486;22;45485;-94
2022/03/20 01:54:45;;;;;;;;;3.00;3.00;;;;;11.56;65.27;102332.91;6398481;22;48006;-94
2022/03/20 01:57:22;;;;;;;;;6.00;3.33;;;;;11.48;65.00;102335.03;6398655;22;45320;-94
2022/03/20 01:59:52;;;;;;;;;2.00;2.00;;;;;11.32;65.22;102330.44;6398356;22;45327;-94
2022/03/20 02:02:18;;;;;;;;;5.33;2.00;;;;;11.38;65.16;102339.69;6398785;22;45560;-94
2022/03/20 02:04:47;;;;;;;;;2.00;2.00;;;;;11.31;65.54;102329.56;6396667;22;47736;-95
2022/03/20 02:07:13;;;;;;;;;5.33;3.33;;;;;11.27;65.50;102317.00;6398913;22;45401;-94
2022/03/20 02:09:41;;;;;;;;;3.33;1.67;;;;;11.26;65.78;102325.72;6425855;22;45271;-94
2022/03/20 02:12:07;;;;;;;;;5.00;3.33;;;;;11.21;65.73;102324.47;6398710;22;45593;-95
2022/03/20 02:14:34;;;;;;;;;1.67;1.67;;;;;11.26;65.72;102325.72;6398267;22;48143;-95
2022/03/20 02:17:04;;;;;;;;;3.00;3.00;;;;;11.21;66.29;102317.47;6398792;22;45388;-95
2022/03/20 02:19:30;;;;;;;;;3.00;3.00;;;;;11.11;66.17;102309.78;6426801;22;45212;-95
2022/03/20 02:21:56;;;;;;;;;3.00;3.00;;;;;11.05;66.14;102307.66;6424544;22;45372;-95
2022/03/20 02:24:44;;;;;;;;;2.00;2.00;;;;;11.22;66.62;102315.78;6423734;22;47411;-94
2022/03/20 02:27:18;;;;;;;;;3.00;3.00;;;;;11.17;67.02;102315.47;6425906;22;45448;-95
2022/03/20 02:29:55;;;;;;;;;2.67;2.67;;;;;11.05;66.81;102291.88;6399059;22;45421;-94
2022/03/20 02:32:31;;;;;;;;;2.00;2.00;;;;;10.99;66.85;102286.19;6426037;22;45382;-95
2022/03/20 02:35:15;;;;;;;;;2.00;2.00;;;;;10.90;67.41;102276.00;6398032;22;47073;-95
2022/03/20 02:37:46;;;;;;;;;2.00;2.00;;;;;10.87;67.39;102273.16;6397976;22;45367;-94
2022/03/20 02:40:12;;;;;;;;;3.00;3.00;;;;;10.77;67.66;102267.22;6397612;22;45384;-95
2022/03/20 02:42:45;;;;;;;;;4.25;2.00;;;;;10.86;67.87;102284.44;6398523;22;45444;-95
2022/03/20 02:45:12;;;;;;;;;3.00;3.00;;;;;10.84;67.80;102286.97;6425928;22;47193;-95
2022/03/20 02:47:38;;;;;;;;;5.75;3.00;;;;;10.81;68.03;102285.06;6426550;22;46019;-95
2022/03/20 02:50:32;;;;;;;;;2.00;1.67;;;;;10.89;68.50;102285.59;6420431;22;44761;-94
2022/03/20 02:52:58;;;;;;;;;2.50;2.25;;;;;10.76;68.53;102278.56;6452743;22;45070;-96
2022/03/20 02:55:29;;;;;;;;;5.50;3.25;;;;;10.75;68.51;102284.63;6426491;22;46704;-95
2022/03/20 02:57:56;;;;;;;;;2.00;2.00;;;;;10.60;68.40;102260.81;6424218;22;44879;-95
2022/03/20 03:00:25;;;;;;;;;4.33;2.33;;;;;10.60;69.11;102259.13;6398326;22;45425;-94
2022/03/20 03:02:54;;;;;;;;;6.00;3.00;;;;;10.59;69.15;102265.16;6397615;22;45216;-94
2022/03/20 03:05:21;;;;;;;;;3.00;3.00;;;;;10.57;69.16;102260.59;6399049;22;45425;-94
2022/03/20 03:10:56;;;;;;;;;5.75;3.00;;;;;10.66;69.39;102263.88;6399368;22;45345;-94
2022/03/20 03:13:32;;;;;;;;;3.33;2.00;;;;;10.66;69.28;102258.63;6396797;22;45239;-95
2022/03/20 03:16:06;;;;;;;;;7.25;3.00;;;;;10.55;69.41;102247.38;6397112;22;46930;-94
2022/03/20 03:18:32;;;;;;;;;2.00;2.00;;;;;10.55;69.75;102255.25;6424267;22;45313;-94
2022/03/20 03:20:59;;;;;;;;;3.00;2.67;;;;;10.44;69.87;102236.09;6423741;22;45239;-95
2022/03/20 03:23:25;;;;;;;;;4.75;4.75;;;;;10.56;69.65;102262.34;6396616;22;45222;-95
2022/03/20 03:25:50;;;;;;;;;3.00;2.00;;;;;10.45;69.75;102248.41;6396474;22;46964;-94
2022/03/20 03:28:16;;;;;;;;;6.00;2.50;;;;;10.48;70.26;102251.25;6423691;22;45351;-94
2022/03/20 03:30:46;;;;;;;;;6.50;3.75;;;;;10.50;69.89;102249.66;6424316;22;45372;-95
2022/03/20 03:33:15;;;;;;;;;4.50;4.50;;;;;10.44;70.12;102249.22;6397066;22;45354;-94
2022/03/20 03:35:42;;;;;;;;;2.25;2.25;;;;;10.39;69.87;102242.72;6396694;22;47293;-94
2022/03/20 03:38:11;;;;;;;;;5.00;2.75;;;;;10.44;70.49;102264.03;6396884;22;45625;-95
2022/03/20 03:40:37;;;;;;;;;3.00;3.00;;;;;10.31;70.40;102244.81;6397081;22;45194;-94
2022/03/20 03:43:03;;;;;;;;;3.00;3.00;;;;;10.33;70.14;102258.06;6396639;22;45303;-94
2022/03/20 03:45:29;;;;;;;;;3.00;3.00;;;;;10.14;70.27;102228.78;6396508;22;48160;-94
2022/03/20 03:47:55;;;;;;;;;6.50;5.00;;;;;10.19;70.70;102236.97;6396652;22;45958;-94
2022/03/20 03:50:21;;;;;;;;;3.00;3.00;;;;;10.13;70.65;102239.16;6396655;22;45424;-95
2022/03/20 03:52:47;;;;;;;;;3.00;3.00;;;;;10.15;70.95;102245.44;6396582;22;45386;-94
2022/03/20 03:55:13;;;;;;;;;5.00;2.50;;;;;10.02;71.26;102228.84;6396730;22;47258;-95
2022/03/20 03:57:43;;;;;;;;;7.75;5.50;;;;;10.10;71.22;102229.34;6396648;22;45408;-95
2022/03/20 04:00:09;;;;;;;;;6.00;5.00;;;;;10.04;71.08;102226.31;6397161;22;45299;-94
2022/03/20 04:02:35;;;;;;;;;5.00;5.00;;;;;10.03;71.88;102230.63;6398605;22;45348;-94
2022/03/20 04:05:03;;;;;;;;;6.50;5.25;;;;;10.09;71.25;102245.00;6395998;22;47877;-94
2022/03/20 04:07:28;;;;;;;;;3.00;2.25;;;;;10.03;71.37;102235.88;6396007;22;45333;-94
2022/03/20 04:09:54;;;;;;;;;5.50;5.50;;;;;9.92;71.27;102215.88;6396691;22;45486;-94
2022/03/20 04:12:22;;;;;;;;;5.00;5.00;;;;;10.01;71.61;102232.25;6396429;22;45415;-95
2022/03/20 04:14:50;;;;;;;;;3.50;3.50;;;;;9.92;71.96;102232.47;6422455;22;47020;-94
2022/03/20 04:17:16;;;;;;;;;6.00;3.50;;;;;9.89;72.07;102226.13;6423859;22;45884;-94
2022/03/20 04:19:41;;;;;;;;;3.00;3.00;;;;;9.89;72.08;102223.50;6396078;22;45378;-94
2022/03/20 04:22:07;;;;;;;;;6.50;6.00;;;;;9.89;72.86;102226.13;6397109;22;45341;-94
2022/03/20 04:24:36;;;;;;;;;5.00;4.25;;;;;9.87;72.31;102226.00;6423574;22;48039;-95
2022/03/20 04:27:01;;;;;;;;;4.75;4.50;;;;;9.84;72.28;102231.03;6396316;22;45513;-94
2022/03/20 04:29:30;;;;;;;;;6.75;5.50;;;;;9.89;72.94;102240.16;6396308;22;45331;-94
2022/03/20 04:31:55;;;;;;;;;5.50;5.00;;;;;9.87;73.13;102239.09;6424156;22;45400;-95
2022/03/20 04:34:23;;;;;;;;;6.00;4.75;;;;;10.02;72.85;102248.91;6395564;22;47217;-95
2022/03/20 04:36:48;;;;;;;;;5.00;4.75;;;;;9.97;72.91;102245.03;6396340;22;45828;-95
2022/03/20 04:39:14;;;;;;;;;6.00;5.00;;;;;9.93;72.91;102236.94;6395982;22;45585;-94
2022/03/20 04:41:41;;;;;;;;;5.00;5.00;;;;;9.90;73.42;102227.94;6396787;22;45330;-94
2022/03/20 04:44:12;;;;;;;;;7.75;6.00;;;;;9.85;73.86;102227.59;6395487;22;47117;-94
2022/03/20 04:46:43;;;;;;;;;7.25;4.50;;;;;9.83;73.39;102232.75;6396161;22;45430;-95
2022/03/20 05:00:06;;;;;;;;;7.50;5.25;;;;;9.77;74.83;102237.53;6398509;22;45412;-95
2022/03/20 05:02:31;;;;;;;;;11.25;6.75;;;;;9.70;74.79;102227.41;6396013;22;45297;-94
2022/03/20 05:04:57;;;;;;;;;6.00;6.00;;;;;9.63;74.78;102218.19;6423463;22;46933;-94
2022/03/20 05:07:22;;;;;;;;;7.25;5.75;;;;;9.76;74.70;102242.69;6425345;22;45302;-95
2022/03/20 05:15:16;;;;;;;;;5.00;5.00;;;;;9.54;75.16;102210.53;6398973;22;45340;-94
2022/03/20 05:17:41;;;;;;;;;5.50;5.25;;;;;9.52;74.83;102211.22;6397196;22;45349;-94
2022/03/20 05:20:08;;;;;;;;;5.50;5.00;;;;;9.58;75.69;102222.19;6424603;22;45328;-94
2022/03/20 05:22:40;;;;;;;;;5.00;5.00;;;;;9.60;75.93;102215.34;6397757;22;45339;-94
2022/03/20 05:25:10;;;;;;;;;8.50;6.00;;;;;9.60;75.76;102228.44;6397083;22;46843;-95
2022/03/20 05:27:36;;;;;;;;;7.50;6.50;;;;;9.56;75.83;102237.78;6397242;22;45442;-95
2022/03/20 05:30:05;;;;;;;;;11.75;7.00;;;;;9.55;76.51;102241.22;6396947;22;45381;-94
2022/03/20 05:32:31;;;;;;;;;10.50;7.00;;;;;9.43;76.33;102224.59;6397224;22;45461;-94
2022/03/20 05:34:57;;;;;;;;;8.50;6.00;;;;;9.42;76.49;102231.53;6397123;22;47045;-94
2022/03/20 05:37:22;;;;;;;;;6.75;6.75;;;;;9.42;76.74;102233.25;6397712;22;45292;-94
2022/03/20 05:39:48;;;;;;;;;7.00;6.00;;;;;9.35;76.77;102216.16;6396859;22;45603;-94
2022/03/20 05:42:14;;;;;;;;;6.25;6.00;;;;;9.29;76.54;102208.75;6397506;22;45267;-94
2022/03/20 05:44:40;;;;;;;;;7.25;6.25;;;;;9.38;76.72;102222.53;6424053;22;47217;-95
2022/03/20 05:47:06;;;;;;;;;6.25;6.00;;;;;9.37;76.88;102218.09;6396291;22;45362;-95
2022/03/20 05:49:35;;;;;;;;;5.50;5.50;;;;;9.42;77.33;102228.91;6424372;22;45425;-95
2022/03/20 05:52:00;;;;;;;;;10.50;5.75;;;;;9.30;76.78;102212.28;6397954;22;45473;-94
2022/03/20 05:54:28;;;;;;;;;6.00;6.00;;;;;9.33;76.75;102212.50;6396896;22;47021;-94
2022/03/20 05:59:37;;;;;;;;;5.75;5.75;;;;;9.34;77.22;102217.84;6399301;22;45441;-94
2022/03/20 06:02:04;;;;;;;;;7.00;6.00;;;;;9.26;77.15;102206.81;6423721;22;45410;-94
2022/03/20 06:04:33;;;;;;;;;9.50;6.00;;;;;9.24;77.46;102213.66;6423095;22;46873;-93
2022/03/20 06:06:58;;;;;;;;;6.75;6.00;;;;;9.30;77.89;102218.44;6399463;22;45476;-94
2022/03/20 06:09:24;;;;;;;;;8.00;8.00;;;;;9.21;77.33;102210.78;6396875;22;45428;-94
2022/03/20 06:11:49;;;;;;;;;7.00;5.50;;;;;9.33;78.24;102221.25;6397216;22;45458;-95
2022/03/20 06:14:17;;;;;;;;;7.00;7.00;;;;;9.22;78.16;102201.22;6424603;22;48208;-94
2022/03/20 06:16:43;;;;;;;;;8.50;8.50;;;;;9.26;78.41;102219.00;6423976;22;45595;-94
2022/03/20 06:19:11;;;;;;;;;6.50;6.25;;;;;9.19;77.91;102214.09;6424420;22;45283;-94
2022/03/20 06:21:38;;;;;;;;;9.00;6.00;;;;;9.33;78.45;102228.25;6397443;22;45719;-94
2022/03/20 06:24:06;;;;;;;;;6.75;6.75;;;;;9.31;78.09;102203.59;6422542;22;47815;-94
2022/03/20 06:26:31;;;;;;;;;8.00;6.00;;;;;9.42;77.69;102242.03;6424379;22;45219;-94
2022/03/20 06:28:57;;;;;;;;;6.75;6.00;;;;;9.32;78.22;102224.69;6396189;22;45249;-94
2022/03/20 06:31:23;;;;;;;;;11.50;10.50;;;;;9.32;77.73;102222.09;6431474;22;45548;-95
2022/03/20 06:33:48;;;;;;;;;5.25;5.00;;;;;9.39;78.04;102229.59;6426722;22;46896;-94
2022/03/20 06:36:17;;;;;;;;;11.50;11.50;;;;;9.54;77.89;102252.50;6453616;22;44797;-94
2022/03/20 06:38:42;;;;;;;;;10.00;7.75;;;;;9.53;77.92;102242.81;6426875;22;44738;-94
2022/03/20 06:41:08;;;;;;;;;9.00;8.25;;;;;9.57;78.01;102244.84;6443580;22;44928;-95
2022/03/20 06:43:36;;;;;;;;;7.00;6.00;;;;;9.61;78.44;102243.38;6397823;22;48377;-94
2022/03/20 06:46:03;;;;;;;;;8.25;8.25;;;;;9.64;77.90;102242.69;6423834;22;46121;-95
2022/03/20 06:48:29;;;;;;;;;10.25;9.00;;;;;9.61;78.16;102240.78;6424593;22;45287;-94
2022/03/20 06:50:55;;;;;;;;;9.75;7.00;;;;;9.71;78.19;102253.75;6424084;22;45436;-95
2022/03/20 06:53:20;;;;;;;;;9.75;8.75;;;;;9.76;77.86;102254.09;6424100;22;47233;-95
2022/03/20 06:55:46;;;;;;;;;9.75;7.00;;;;;9.80;78.28;102261.38;6423969;22;45396;-95
2022/03/20 06:58:17;;;;;;;;;7.25;7.25;;;;;9.80;78.25;102256.13;6396680;22;45417;-95
2022/03/20 07:00:44;;;;;;;;;9.50;7.50;;;;;9.82;78.34;102249.28;6397023;22;45573;-95
2022/03/20 07:03:10;;;;;;;;;13.25;9.00;;;;;9.97;78.07;102260.78;6397053;22;48334;-95
2022/03/20 07:05:40;;;;;;;;;11.00;10.00;;;;;9.95;78.24;102250.16;6398573;22;45458;-94
2022/03/20 07:08:09;;;;;;;;;15.00;11.00;;;;;9.95;78.30;102245.81;6397360;22;45354;-95
2022/03/20 07:10:46;;;;;;;;;;;;;;;;;;;;;
2022/03/20 07:16:06;;;;;;;;;13.25;13.25;;;;;10.14;78.14;102256.75;6399250;22;45374;-95
2022/03/20 07:18:46;;;;;;;;;10.25;7.75;;;;;10.17;78.56;102252.63;6424223;22;45466;-95
2022/03/20 07:21:23;;;;;;;;;17.00;14.50;;;;;10.22;78.43;102252.97;6423301;22;45349;-95
2022/03/20 07:23:51;;;;;;;;;13.00;13.00;;;;;10.21;78.49;102256.38;6394692;22;46979;-95
2022/03/20 07:33:50;;;;;;;;;13.75;11.50;;;;;10.46;78.39;102265.97;6215600;22;45430;-93
2022/03/20 07:40:25;;;;;;;;;;;;;;;;;;;;;
2022/03/20 07:45:46;;;;;;;;;15.50;13.25;;;;;10.57;78.73;102251.00;6060782;23;45574;-93
2022/03/20 07:48:21;;;;;;;;;15.00;13.00;;;;;10.60;79.04;102263.44;6089592;23;46355;-94
2022/03/20 07:51:01;;;;;;;;;19.50;15.75;;;;;10.77;78.94;102271.59;6088077;23;45522;-94
2022/03/20 07:53:30;;;;;;;;;15.25;15.25;;;;;10.79;78.80;102255.16;6087983;23;45586;-94
2022/03/20 07:55:55;;;;;;;;;16.75;15.75;;;;;10.90;78.82;102274.25;6088472;23;45536;-95
2022/03/20 07:58:20;;;;;;;;;19.50;15.75;;;;;11.01;78.97;102269.75;6087929;23;47255;-95
2022/03/20 08:04:00;;;;;;;;;13.50;12.00;;;;;10.97;78.93;102246.69;6074673;23;45239;-94
2022/03/20 08:06:29;;;;;;;;;20.75;18.50;;;;;11.17;79.11;102262.91;6066889;23;45475;-93
2022/03/20 08:09:31;;;;;;;;;;;;;;;;;;;;;
2022/03/20 08:12:06;;;;;;;;;19.25;16.25;;;;;11.24;79.08;102254.63;6218391;22;72551;-94
2022/03/20 08:14:57;;;;;;;;;;;;;;;;;;;;;
2022/03/20 08:17:22;;;;;;;;;19.75;17.25;;;;;11.43;79.00;102257.56;6300523;22;69083;-93
2022/03/20 08:19:50;;;;;;;;;20.25;18.25;;;;;11.53;79.20;102261.69;6356137;22;47312;-94
2022/03/20 08:22:15;;;;;;;;;24.75;21.00;;;;;11.51;79.29;102251.09;6396297;22;45649;-87
2022/03/20 08:24:42;;;;;;;;;23.50;19.50;;;;;11.62;78.91;102257.06;6399680;22;45360;-86
2022/03/20 08:27:07;;;;;;;;;17.00;14.25;;;;;11.66;79.10;102256.44;6423533;22;45403;-90
2022/03/20 08:29:32;;;;;;;;;27.50;19.00;;;;;11.80;79.02;102270.47;6396689;22;46219;-89
2022/03/20 08:31:58;;;;;;;;;26.25;22.75;;;;;11.83;79.27;102265.44;6397357;22;45295;-91
2022/03/20 08:34:24;;;;;;;;;23.00;21.25;;;;;11.93;78.94;102263.41;6397224;22;45321;-90
2022/03/20 08:36:49;;;;;;;;;22.00;19.75;;;;;11.98;79.03;102263.69;6421877;22;45984;-91
2022/03/20 08:39:14;;;;;;;;;26.00;22.75;;;;;12.04;79.01;102270.25;6394843;22;47167;-89
2022/03/20 08:41:40;;;;;;;;;22.50;20.25;;;;;12.07;79.05;102270.47;6398344;22;45271;-92
2022/03/20 08:44:05;;;;;;;;;24.75;19.50;;;;;12.16;78.99;102269.25;6397689;22;45365;-90
2022/03/20 08:46:32;;;;;;;;;26.25;23.25;;;;;12.28;79.26;102274.38;6396481;22;45675;-89
2022/03/20 08:48:58;;;;;;;;;21.75;21.75;;;;;12.31;79.01;102271.94;6398793;22;46542;-87
2022/03/20 08:51:23;;;;;;;;;25.75;21.25;;;;;12.37;79.11;102266.16;6398494;22;45303;-89
2022/03/20 08:53:49;;;;;;;;;25.50;22.75;;;;;12.36;78.80;102270.53;6398545;22;45291;-88
2022/03/20 08:56:15;;;;;;;;;28.25;27.50;;;;;12.48;78.91;102274.72;6398109;22;45369;-89
2022/03/20 08:58:40;;;;;;;;;16.25;15.50;;;;;12.51;78.99;102273.19;6398382;22;46013;-89
2022/03/20 09:01:07;;;;;;;;;25.00;22.75;;;;;12.57;78.67;102270.03;6396073;22;45684;-89
2022/03/20 09:03:33;;;;;;;;;27.50;25.50;;;;;12.63;79.00;102270.41;6396536;22;45305;-88
2022/03/20 09:05:58;;;;;;;;;21.75;19.00;;;;;12.72;78.71;102277.97;6396677;22;45376;-89
2022/03/20 09:08:24;;;;;;;;;23.50;21.00;;;;;12.80;79.04;102274.88;6395146;22;47207;-88
2022/03/20 09:10:50;;;;;;;;;24.75;21.25;;;;;12.89;78.68;102278.06;6397637;22;45449;-89
2022/03/20 09:13:16;;;;;;;;;31.25;23.50;;;;;12.92;78.84;102274.72;6397989;22;45253;-89
2022/03/20 09:15:41;;;;;;;;;25.00;24.50;;;;;12.97;79.00;102275.91;6397101;22;45305;-89
2022/03/20 09:20:50;;;;;;;;;25.75;24.00;;;;;13.11;78.58;102283.75;6397158;22;45815;-90
2022/03/20 09:23:15;;;;;;;;;28.00;23.00;;;;;13.15;78.04;102281.38;6395960;22;45368;-89
2022/03/20 09:25:41;;;;;;;;;30.25;24.75;;;;;13.19;78.46;102282.47;6397596;22;45342;-89
2022/03/20 09:28:09;;;;;;;;;29.25;27.50;;;;;13.29;78.43;102279.56;6400077;22;45285;-90
2022/03/20 09:30:38;;;;;;;;;29.75;26.25;;;;;13.37;77.98;102284.38;6397325;22;45279;-89
2022/03/20 09:33:05;;;;;;;;;23.25;22.25;;;;;13.38;78.25;102280.91;6424131;22;45311;-89
2022/03/20 09:35:34;;;;;;;;;27.25;22.75;;;;;13.47;77.81;102280.53;6425541;22;45867;-89
2022/03/20 09:38:01;;;;;;;;;30.00;25.50;;;;;13.58;78.50;102270.66;6402421;22;46791;-88
2022/03/20 09:40:27;;;;;;;;;27.50;24.00;;;;;13.61;78.52;102277.00;6399660;22;45280;-89
2022/03/20 09:42:52;;;;;;;;;29.00;23.25;;;;;13.73;78.36;102274.19;6397940;22;45194;-90
2022/03/20 09:45:19;;;;;;;;;27.50;25.25;;;;;13.83;78.59;102279.97;6423151;22;45284;-90
2022/03/20 09:47:45;;;;;;;;;29.00;27.75;;;;;13.88;78.49;102277.56;6427479;22;46320;-90
2022/03/20 09:50:12;;;;;;;;;24.25;23.75;;;;;13.96;78.10;102271.91;6398941;22;45308;-90
2022/03/20 09:52:38;;;;;;;;;31.75;28.00;;;;;14.07;77.72;102271.63;6398411;22;45257;-90
2022/03/20 09:55:06;;;;;;;;;31.25;24.75;;;;;14.16;78.07;102271.19;6396219;22;45376;-90
2022/03/20 09:57:32;;;;;;;;;31.25;28.75;;;;;14.23;78.02;102275.06;6423043;22;47380;-90
2022/03/20 10:00:01;;;;;;;;;30.25;25.00;;;;;14.28;77.57;102277.16;6408379;22;45270;-90
2022/03/20 10:02:27;;;;;;;;;26.50;26.00;;;;;14.34;77.20;102280.94;6401796;22;45370;-90
2022/03/20 10:05:00;;;;;;;;;33.75;27.50;;;;;14.39;77.32;102277.75;6398360;22;45346;-91
2022/03/20 10:07:30;;;;;;;;;27.50;25.00;;;;;14.45;76.87;102273.63;6396607;22;46654;-90
2022/03/20 10:10:06;;;;;;;;;28.75;27.50;;;;;14.57;77.24;102276.91;6398520;22;45405;-90
2022/03/20 10:12:33;;;;;;;;;28.50;26.75;;;;;14.56;77.11;102277.72;6398875;22;45280;-90
2022/03/20 10:14:58;;;;;;;;;31.50;28.25;;;;;14.58;77.02;102269.91;6420835;22;44798;-91
2022/03/20 10:17:23;;;;;;;;;21.25;20.50;;;;;14.64;76.95;102267.56;6415804;22;50442;-90
2022/03/20 10:19:49;;;;;;;;;33.25;28.75;;;;;14.75;77.07;102276.97;6420736;22;45328;-91
2022/03/20 10:22:21;;;;;;;;;34.25;26.75;;;;;14.78;76.45;102265.66;6442722;22;45220;-90
2022/03/20 10:24:50;;;;;;;;;23.50;21.75;;;;;14.91;76.40;102275.19;6416101;22;45398;-90
2022/03/20 10:27:15;;;;;;;;;29.00;26.00;;;;;14.91;75.68;102272.53;6413547;22;45411;-91
2022/03/20 10:30:09;;;;;;;;;28.75;26.25;;;;;15.10;75.62;102273.47;6415906;22;45295;-91
2022/03/20 10:32:35;;;;;;;;;27.75;25.25;;;;;15.06;75.66;102276.78;6399800;22;45462;-91
2022/03/20 10:35:04;;;;;;;;;25.75;24.75;;;;;15.14;74.69;102271.91;6433667;22;45504;-90
2022/03/20 10:37:51;;;;;;;;;25.00;22.50;;;;;15.23;74.27;102274.13;6402871;22;46907;-91
2022/03/20 10:40:19;;;;;;;;;23.75;17.50;;;;;15.22;74.35;102267.00;6404160;22;45390;-90
2022/03/20 10:43:10;;;;;;;;;23.75;23.50;;;;;15.32;73.97;102260.44;6431870;22;45306;-89
2022/03/20 10:45:49;;;;;;;;;30.00;23.50;;;;;15.41;74.18;102269.72;6407326;22;45836;-91
2022/03/20 10:48:20;;;;;;;;;34.50;26.50;;;;;15.43;74.54;102268.91;6407359;22;45381;-90
2022/03/20 10:50:47;;;;;;;;;28.00;23.75;;;;;15.51;73.06;102275.50;6399553;22;45407;-90
2022/03/20 10:53:12;;;;;;;;;29.50;23.75;;;;;15.49;72.94;102270.09;6405162;22;45470;-90
2022/03/20 10:55:37;;;;;;;;;23.25;23.25;;;;;15.54;73.66;102265.03;6418846;22;44953;-89
2022/03/20 10:58:19;;;;;;;;;19.75;19.25;;;;;15.70;71.06;102264.06;6406714;22;47008;-91
2022/03/20 11:00:46;;;;;;;;;23.75;17.75;;;;;15.64;71.18;102269.06;6413333;22;45972;-90
2022/03/20 11:03:15;;;;;;;;;20.75;20.75;;;;;15.75;70.33;102261.63;6411192;22;45336;-90
2022/03/20 11:05:40;;;;;;;;;25.00;22.25;;;;;15.74;71.15;102259.84;6414372;22;45298;-88
2022/03/20 11:08:06;;;;;;;;;14.00;14.00;;;;;15.83;70.64;102262.91;6410297;22;46005;-90
2022/03/20 11:10:32;;;;;;;;;25.00;19.50;;;;;15.90;70.33;102256.16;6440632;22;45251;-90
2022/03/20 11:12:57;;;;;;;;;16.50;14.25;;;;;15.97;69.78;102257.38;6404253;22;45163;-91
2022/03/20 11:15:23;;;;;;;;;22.00;17.50;;;;;16.05;69.67;102257.78;6403863;22;45281;-91
2022/03/20 11:17:50;;;;;;;;;22.00;18.75;;;;;16.18;69.90;102253.97;6411523;22;45316;-89
2022/03/20 11:20:17;;;;;;;;;19.50;17.25;;;;;16.22;69.48;102255.91;6413293;22;45156;-91
2022/03/20 11:22:48;;;;;;;;;23.00;18.00;;;;;16.32;69.59;102246.63;6427732;22;45334;-90
2022/03/20 11:25:17;;;;;;;;;26.00;23.50;;;;;16.32;68.57;102254.56;6401970;22;45570;-89
2022/03/20 11:27:50;;;;;;;;;20.25;16.00;;;;;16.42;68.49;102251.50;6406158;22;45327;-91
2022/03/20 11:30:16;;;;;;;;;21.25;19.50;;;;;16.39;68.91;102243.41;6400006;22;45237;-90
2022/03/20 11:32:46;;;;;;;;;19.50;16.50;;;;;16.50;68.34;102251.84;6404497;22;45353;-90
2022/03/20 11:35:11;;;;;;;;;26.00;21.50;;;;;16.51;67.95;102253.69;6423426;22;45637;-90
2022/03/20 11:37:47;;;;;;;;;25.25;23.75;;;;;16.69;68.26;102246.47;6400223;22;46541;-90
2022/03/20 11:40:17;;;;;;;;;22.00;18.25;;;;;16.70;68.60;102249.19;6404623;22;46210;-90
2022/03/20 11:42:43;;;;;;;;;29.50;24.25;;;;;16.77;68.35;102255.69;6425457;22;45390;-91
2022/03/20 11:45:12;;;;;;;;;21.25;17.50;;;;;16.92;68.58;102246.56;6397002;22;45320;-90
2022/03/20 11:47:39;;;;;;;;;22.50;22.50;;;;;17.01;68.41;102241.66;6422124;22;47253;-91
2022/03/20 11:50:08;;;;;;;;;19.50;16.75;;;;;17.15;67.99;102246.63;6394636;22;45881;-90
2022/03/20 11:52:53;;;;;;;;;23.50;21.50;;;;;17.26;67.47;102247.13;6396433;22;45376;-90
2022/03/20 11:55:41;;;;;;;;;31.00;25.50;;;;;17.32;67.00;102247.38;6396773;22;45504;-91
2022/03/20 11:58:12;;;;;;;;;28.25;21.25;;;;;17.36;67.30;102244.03;6396652;22;46013;-90
2022/03/20 12:00:43;;;;;;;;;21.50;21.50;;;;;17.44;66.94;102238.13;6394697;22;45310;-90
2022/03/20 12:03:15;;;;;;;;;28.00;21.25;;;;;17.61;66.26;102239.69;6394608;22;45307;-89
2022/03/20 12:06:02;;;;;;;;;18.75;16.00;;;;;17.67;66.44;102227.50;6393740;22;45308;-90
2022/03/20 12:09:01;;;;;;;;;22.50;20.00;;;;;17.87;66.79;102231.88;6393664;22;48134;-90
2022/03/20 12:12:04;;;;;;;;;20.50;18.25;;;;;18.08;67.73;102230.88;6394560;22;45319;-90
2022/03/20 12:14:39;;;;;;;;;21.00;18.00;;;;;18.19;65.96;102217.97;6398860;22;45241;-90
2022/03/20 12:17:05;;;;;;;;;23.00;20.25;;;;;18.25;65.63;102209.38;6401401;22;45274;-90